createdAt,value
2019-06-27T00:00:48.420Z,72.93
2019-06-27T00:01:48.432Z,72.63
2019-06-27T00:02:48.457Z,72.93
2019-06-27T00:03:48.384Z,72.83
2019-06-27T00:04:48.372Z,72.80
2019-06-27T00:05:48.362Z,72.93
2019-06-27T00:06:48.379Z,72.09
2019-06-27T00:07:48.343Z,72.93
2019-06-27T00:08:48.334Z,73.30
2019-06-27T00:09:48.318Z,73.00
2019-06-27T00:10:48.308Z,72.93
2019-06-27T00:11:48.325Z,72.93
2019-06-27T00:12:48.284Z,72.93
2019-06-27T00:13:48.274Z,73.03
2019-06-27T00:14:48.263Z,72.73
2019-06-27T00:15:48.255Z,72.93
2019-06-27T00:16:48.271Z,73.03
2019-06-27T00:17:48.229Z,72.73
2019-06-27T00:18:48.222Z,73.67
2019-06-27T00:19:48.208Z,73.16
2019-06-27T00:20:48.198Z,73.47
2019-06-27T00:21:48.215Z,72.97
2019-06-27T00:22:48.174Z,73.27
2019-06-27T00:23:48.166Z,73.07
2019-06-27T00:24:48.156Z,73.86
2019-06-27T00:25:48.173Z,74.37
2019-06-27T00:26:57.326Z,73.57
2019-06-27T00:27:49.119Z,73.16
2019-06-27T00:28:48.111Z,73.16
2019-06-27T00:29:48.099Z,72.97
2019-06-27T00:30:48.089Z,73.30
2019-06-27T00:31:48.077Z,73.86
2019-06-27T00:32:48.097Z,73.50
2019-06-27T00:33:48.056Z,74.27
2019-06-27T00:34:48.046Z,74.37
2019-06-27T00:35:48.033Z,73.36
2019-06-27T00:36:48.024Z,74.10
2019-06-27T00:37:48.040Z,73.90
2019-06-27T00:38:48.003Z,74.60
2019-06-27T00:39:47.990Z,74.40
2019-06-27T00:40:47.980Z,74.30
2019-06-27T00:41:47.970Z,75.10
2019-06-27T00:42:47.983Z,74.01
2019-06-27T00:43:47.946Z,74.60
2019-06-27T00:44:47.935Z,74.94
2019-06-27T00:45:47.927Z,75.31
2019-06-27T00:46:47.915Z,74.44
2019-06-27T00:47:47.930Z,74.84
2019-06-27T00:48:47.892Z,75.01
2019-06-27T00:49:47.882Z,74.60
2019-06-27T00:50:47.873Z,74.24
2019-06-27T00:51:47.860Z,75.04
2019-06-27T00:52:47.876Z,75.74
2019-06-27T00:53:47.838Z,75.74
2019-06-27T00:54:47.827Z,75.95
2019-06-27T00:55:47.819Z,75.38
2019-06-27T00:56:47.806Z,75.58
2019-06-27T00:57:47.821Z,76.08
2019-06-27T00:58:47.784Z,76.58
2019-06-27T00:59:47.772Z,76.08
2019-06-27T01:00:47.781Z,76.18
2019-06-27T01:01:47.753Z,75.58
2019-06-27T01:02:47.768Z,76.52
2019-06-27T01:03:47.730Z,76.08
2019-06-27T01:04:47.720Z,76.98
2019-06-27T01:05:47.709Z,76.38
2019-06-27T01:06:47.705Z,76.02
2019-06-27T01:07:47.735Z,75.98
2019-06-27T01:08:47.732Z,76.62
2019-06-27T01:09:47.665Z,76.52
2019-06-27T01:10:47.655Z,77.12
2019-06-27T01:11:47.642Z,76.82
2019-06-27T01:12:47.656Z,77.26
2019-06-27T01:13:47.620Z,77.36
2019-06-27T01:14:47.611Z,77.86
2019-06-27T01:15:47.603Z,77.02
2019-06-27T01:16:47.588Z,77.42
2019-06-27T01:17:47.604Z,77.16
2019-06-27T01:18:47.566Z,77.52
2019-06-27T01:19:47.555Z,78.27
2019-06-27T01:20:47.544Z,77.36
2019-06-27T01:21:47.534Z,77.56
2019-06-27T01:22:47.552Z,77.26
2019-06-27T01:23:47.514Z,78.06
2019-06-27T01:24:47.506Z,78.66
2019-06-27T01:25:47.491Z,77.46
2019-06-27T01:26:47.479Z,79.17
2019-06-27T01:27:47.499Z,78.06
2019-06-27T01:28:47.458Z,78.16
2019-06-27T01:29:47.447Z,77.39
2019-06-27T01:30:47.436Z,78.00
2019-06-27T01:31:47.425Z,77.29
2019-06-27T01:32:47.444Z,78.30
2019-06-27T01:33:47.406Z,79.71
2019-06-27T01:34:47.393Z,78.50
2019-06-27T01:35:47.383Z,79.81
2019-06-27T01:36:47.371Z,79.10
2019-06-27T01:37:47.386Z,78.50
2019-06-27T01:38:47.367Z,78.60
2019-06-27T01:39:47.372Z,79.00
2019-06-27T01:40:47.355Z,79.50
2019-06-27T01:41:47.319Z,79.91
2019-06-27T01:42:47.349Z,79.81
2019-06-27T01:43:47.297Z,79.41
2019-06-27T01:44:47.283Z,78.70
2019-06-27T01:45:47.273Z,79.00
2019-06-27T01:46:47.263Z,78.90
2019-06-27T01:47:47.279Z,78.50
2019-06-27T01:48:47.243Z,78.94
2019-06-27T01:49:47.229Z,79.64
2019-06-27T01:50:47.217Z,79.54
2019-06-27T01:51:47.210Z,79.68
2019-06-27T01:52:47.221Z,79.74
2019-06-27T01:53:47.184Z,80.08
2019-06-27T01:54:47.194Z,79.85
2019-06-27T01:55:47.161Z,79.99
2019-06-27T01:56:47.187Z,79.88
2019-06-27T01:57:47.479Z,80.99
2019-06-27T01:58:47.128Z,80.49
2019-06-27T01:59:47.116Z,81.49
2019-06-27T02:00:47.108Z,81.19
2019-06-27T02:01:47.094Z,80.39
2019-06-27T02:02:47.112Z,81.49
2019-06-27T02:03:47.094Z,80.39
2019-06-27T02:04:47.061Z,80.43
2019-06-27T02:05:47.051Z,80.89
2019-06-27T02:06:47.039Z,80.58
2019-06-27T02:07:47.059Z,81.33
2019-06-27T02:08:47.018Z,80.73
2019-06-27T02:09:47.006Z,81.63
2019-06-27T02:10:46.994Z,81.23
2019-06-27T02:11:46.984Z,81.77
2019-06-27T02:12:47.008Z,82.34
2019-06-27T02:13:46.962Z,81.53
2019-06-27T02:14:46.951Z,81.77
2019-06-27T02:15:46.939Z,81.27
2019-06-27T02:16:46.930Z,81.47
2019-06-27T02:17:46.947Z,81.67
2019-06-27T02:18:46.905Z,81.98
2019-06-27T02:19:46.899Z,81.77
2019-06-27T02:20:46.883Z,81.47
2019-06-27T02:21:46.873Z,82.38
2019-06-27T02:22:46.890Z,81.71
2019-06-27T02:23:46.850Z,81.98
2019-06-27T02:24:46.838Z,82.31
2019-06-27T02:25:46.826Z,82.38
2019-06-27T02:26:46.817Z,82.11
2019-06-27T02:28:02.577Z,83.18
2019-06-27T02:28:47.796Z,82.07
2019-06-27T02:29:46.784Z,82.38
2019-06-27T02:30:46.782Z,82.38
2019-06-27T02:31:46.759Z,82.42
2019-06-27T02:32:46.777Z,82.71
2019-06-27T02:33:46.739Z,83.12
2019-06-27T02:34:46.730Z,82.82
2019-06-27T02:35:46.720Z,82.82
2019-06-27T02:36:46.703Z,83.83
2019-06-27T02:37:46.741Z,83.72
2019-06-27T02:38:46.683Z,82.62
2019-06-27T02:39:46.683Z,83.22
2019-06-27T02:40:46.659Z,83.72
2019-06-27T02:41:46.650Z,83.52
2019-06-27T02:42:46.664Z,83.93
2019-06-27T02:43:46.637Z,83.52
2019-06-27T02:44:46.616Z,83.76
2019-06-27T02:45:46.673Z,83.22
2019-06-27T02:46:46.594Z,82.71
2019-06-27T02:47:46.615Z,82.76
2019-06-27T02:48:46.572Z,83.72
2019-06-27T02:49:49.942Z,83.22
2019-06-27T02:50:46.567Z,83.32
2019-06-27T02:51:46.537Z,82.71
2019-06-27T02:52:46.554Z,83.02
2019-06-27T02:53:46.524Z,82.92
2019-06-27T02:54:46.505Z,84.13
2019-06-27T02:55:46.497Z,83.76
2019-06-27T02:56:46.483Z,83.52
2019-06-27T02:57:46.501Z,83.66
2019-06-27T02:58:46.463Z,83.76
2019-06-27T02:59:46.451Z,83.87
2019-06-27T03:00:46.441Z,83.76
2019-06-27T03:01:46.427Z,83.97
2019-06-27T03:02:46.456Z,84.47
2019-06-27T03:03:46.404Z,84.37
2019-06-27T03:04:46.392Z,84.07
2019-06-27T03:05:46.387Z,84.21
2019-06-27T03:06:46.372Z,84.61
2019-06-27T03:07:46.362Z,85.62
2019-06-27T03:08:46.375Z,85.22
2019-06-27T03:09:46.336Z,85.42
2019-06-27T03:10:46.327Z,85.16
2019-06-27T03:11:46.322Z,85.66
2019-06-27T03:12:46.304Z,85.22
2019-06-27T03:13:46.328Z,85.52
2019-06-27T03:14:46.283Z,85.31
2019-06-27T03:15:46.271Z,85.31
2019-06-27T03:16:46.261Z,85.05
2019-06-27T03:17:46.250Z,85.76
2019-06-27T03:18:46.265Z,85.66
2019-06-27T03:19:46.233Z,86.36
2019-06-27T03:20:46.220Z,85.56
2019-06-27T03:21:46.236Z,85.52
2019-06-27T03:22:46.194Z,84.85
2019-06-27T03:23:46.210Z,84.91
2019-06-27T03:24:46.172Z,85.52
2019-06-27T03:25:46.162Z,85.66
2019-06-27T03:26:46.149Z,85.86
2019-06-27T03:27:46.139Z,86.10
2019-06-27T03:28:52.697Z,86.30
2019-06-27T03:29:47.117Z,88.12
2019-06-27T03:30:46.106Z,87.21
2019-06-27T03:31:46.098Z,86.47
2019-06-27T03:32:46.095Z,86.67
2019-06-27T03:33:46.284Z,86.67
2019-06-27T03:34:46.062Z,86.47
2019-06-27T03:35:46.067Z,86.47
2019-06-27T03:36:46.042Z,86.47
2019-06-27T03:37:46.032Z,85.76
2019-06-27T03:38:46.046Z,86.07
2019-06-27T03:39:46.007Z,86.47
2019-06-27T03:40:46.002Z,87.07
2019-06-27T03:41:45.990Z,85.96
2019-06-27T03:42:45.975Z,86.47
2019-06-27T03:43:45.990Z,86.97
2019-06-27T03:44:45.952Z,85.50
2019-06-27T03:45:45.941Z,86.51
2019-06-27T03:46:45.934Z,86.61
2019-06-27T03:47:45.919Z,86.27
2019-06-27T03:48:45.938Z,86.87
2019-06-27T03:49:45.905Z,86.27
2019-06-27T03:50:45.888Z,86.27
2019-06-27T03:51:45.874Z,86.67
2019-06-27T03:52:45.867Z,86.16
2019-06-27T03:53:45.894Z,86.16
2019-06-27T03:54:45.842Z,86.27
2019-06-27T03:55:45.832Z,86.16
2019-06-27T03:56:45.823Z,86.27
2019-06-27T03:57:45.818Z,86.27
2019-06-27T03:58:45.823Z,86.16
2019-06-27T03:59:45.796Z,85.25
2019-06-27T04:00:45.777Z,85.56
2019-06-27T04:01:45.766Z,86.67
2019-06-27T04:02:45.755Z,86.57
2019-06-27T04:03:45.772Z,85.46
2019-06-27T04:04:45.733Z,86.27
2019-06-27T04:05:45.725Z,85.16
2019-06-27T04:06:45.785Z,86.13
2019-06-27T04:07:45.698Z,85.31
2019-06-27T04:08:45.716Z,84.81
2019-06-27T04:09:45.678Z,84.41
2019-06-27T04:10:45.667Z,85.11
2019-06-27T04:11:45.658Z,84.81
2019-06-27T04:12:45.643Z,84.91
2019-06-27T04:13:45.659Z,84.91
2019-06-27T04:14:45.623Z,84.91
2019-06-27T04:15:45.609Z,85.02
2019-06-27T04:16:48.958Z,85.11
2019-06-27T04:17:45.589Z,84.91
2019-06-27T04:18:45.602Z,84.31
2019-06-27T04:19:45.579Z,84.61
2019-06-27T04:20:45.556Z,84.41
2019-06-27T04:21:45.546Z,85.11
2019-06-27T04:22:45.539Z,84.37
2019-06-27T04:23:45.550Z,84.17
2019-06-27T04:24:45.515Z,83.87
2019-06-27T04:25:45.506Z,83.76
2019-06-27T04:26:45.494Z,82.42
2019-06-27T04:27:45.479Z,83.52
2019-06-27T04:28:45.492Z,82.71
2019-06-27T04:29:45.459Z,83.52
2019-06-27T04:30:45.450Z,83.62
2019-06-27T04:31:45.437Z,82.31
2019-06-27T04:32:45.427Z,82.01
2019-06-27T04:33:45.438Z,82.07
2019-06-27T04:34:45.403Z,81.81
2019-06-27T04:35:45.396Z,81.98
2019-06-27T04:36:45.382Z,81.47
2019-06-27T04:37:45.373Z,81.37
2019-06-27T04:38:45.384Z,81.47
2019-06-27T04:39:45.346Z,81.07
2019-06-27T04:40:45.337Z,81.57
2019-06-27T04:41:45.327Z,81.71
2019-06-27T04:42:45.315Z,81.17
2019-06-27T04:43:45.332Z,81.47
2019-06-27T04:44:45.295Z,81.37
2019-06-27T04:45:45.282Z,81.47
2019-06-27T04:46:45.272Z,81.47
2019-06-27T04:47:45.262Z,81.07
2019-06-27T04:48:45.276Z,81.47
2019-06-27T04:49:45.244Z,80.63
2019-06-27T04:50:45.230Z,81.03
2019-06-27T04:51:45.220Z,80.12
2019-06-27T04:52:45.209Z,80.32
2019-06-27T04:53:45.222Z,81.37
2019-06-27T04:54:45.190Z,80.46
2019-06-27T04:55:45.180Z,81.33
2019-06-27T04:56:45.166Z,79.92
2019-06-27T04:57:45.157Z,80.19
2019-06-27T04:58:45.170Z,79.62
2019-06-27T04:59:53.138Z,80.22
2019-06-27T05:00:46.123Z,79.72
2019-06-27T05:01:45.111Z,79.46
2019-06-27T05:02:45.104Z,80.46
2019-06-27T05:03:45.115Z,79.62
2019-06-27T05:04:45.078Z,79.82
2019-06-27T05:05:45.069Z,80.58
2019-06-27T05:06:45.059Z,79.58
2019-06-27T05:07:45.049Z,79.04
2019-06-27T05:08:45.062Z,78.34
2019-06-27T05:09:45.024Z,78.23
2019-06-27T05:10:45.013Z,78.14
2019-06-27T05:11:45.004Z,77.43
2019-06-27T05:12:44.994Z,78.94
2019-06-27T05:13:45.004Z,78.64
2019-06-27T05:14:44.970Z,77.94
2019-06-27T05:15:44.985Z,78.70
2019-06-27T05:16:44.949Z,78.20
2019-06-27T05:17:44.936Z,77.29
2019-06-27T05:18:44.950Z,77.53
2019-06-27T05:19:44.913Z,77.67
2019-06-27T05:20:44.903Z,77.94
2019-06-27T05:21:44.894Z,77.73
2019-06-27T05:22:44.882Z,78.31
2019-06-27T05:23:44.896Z,79.22
2019-06-27T05:24:44.861Z,78.78
2019-06-27T05:25:44.851Z,78.61
2019-06-27T05:26:44.839Z,79.18
2019-06-27T05:27:44.851Z,79.99
2019-06-27T05:28:44.842Z,78.64
2019-06-27T05:29:44.808Z,77.94
2019-06-27T05:30:44.802Z,77.43
2019-06-27T05:31:44.787Z,77.13
2019-06-27T05:32:44.776Z,77.43
2019-06-27T05:33:44.791Z,77.53
2019-06-27T05:34:44.846Z,77.00
2019-06-27T05:35:44.744Z,76.49
2019-06-27T05:36:44.732Z,76.63
2019-06-27T05:37:44.742Z,76.93
2019-06-27T05:38:44.734Z,77.13
2019-06-27T05:39:44.705Z,77.29
2019-06-27T05:40:44.693Z,77.00
2019-06-27T05:41:44.686Z,75.65
2019-06-27T05:42:44.689Z,74.71
2019-06-27T05:43:44.683Z,75.21
2019-06-27T05:44:44.648Z,74.11
2019-06-27T05:45:44.637Z,74.51
2019-06-27T05:46:44.647Z,73.81
2019-06-27T05:47:44.625Z,73.91
2019-06-27T05:48:44.635Z,73.30
2019-06-27T05:49:44.597Z,72.90
2019-06-27T05:50:44.585Z,73.17
2019-06-27T05:51:44.585Z,72.87
2019-06-27T05:52:44.565Z,71.97
2019-06-27T05:53:45.718Z,72.56
2019-06-27T05:54:44.540Z,72.27
2019-06-27T05:55:44.536Z,73.17
2019-06-27T05:56:44.525Z,71.13
2019-06-27T05:57:44.513Z,71.26
2019-06-27T05:58:44.566Z,71.77
2019-06-27T05:59:44.528Z,72.47
2019-06-27T06:00:44.516Z,71.53
2019-06-27T06:01:44.506Z,71.03
2019-06-27T06:02:44.472Z,71.63
2019-06-27T06:03:44.461Z,71.73
2019-06-27T06:04:44.459Z,71.33
2019-06-27T06:05:44.434Z,70.96
2019-06-27T06:06:44.444Z,70.46
2019-06-27T06:07:44.424Z,69.66
2019-06-27T06:08:44.415Z,70.16
2019-06-27T06:09:44.380Z,70.16
2019-06-27T06:10:44.369Z,70.46
2019-06-27T06:11:44.364Z,69.62
2019-06-27T06:12:44.376Z,68.82
2019-06-27T06:13:44.341Z,69.93
2019-06-27T06:14:44.330Z,68.92
2019-06-27T06:15:44.317Z,69.53
2019-06-27T06:16:44.387Z,69.32
2019-06-27T06:17:44.378Z,68.02
2019-06-27T06:18:44.287Z,67.82
2019-06-27T06:19:44.298Z,68.12
2019-06-27T06:20:44.277Z,67.82
2019-06-27T06:21:44.257Z,68.42
2019-06-27T06:22:44.338Z,67.12
2019-06-27T06:23:44.246Z,69.69
2019-06-27T06:24:44.257Z,68.15
2019-06-27T06:25:44.449Z,69.86
2019-06-27T06:26:44.214Z,68.96
2019-06-27T06:27:44.217Z,69.19
2019-06-27T06:28:44.192Z,68.76
2019-06-27T06:29:44.171Z,68.79
2019-06-27T06:30:45.254Z,69.96
2019-06-27T06:31:44.155Z,68.92
2019-06-27T06:32:44.167Z,69.53
2019-06-27T06:33:44.159Z,69.09
2019-06-27T06:34:44.125Z,68.92
2019-06-27T06:35:44.154Z,69.19
2019-06-27T06:36:44.101Z,68.76
2019-06-27T06:37:44.111Z,68.52
2019-06-27T06:38:44.077Z,67.02
2019-06-27T06:39:44.073Z,67.35
2019-06-27T06:40:44.055Z,68.52
2019-06-27T06:41:44.047Z,67.45
2019-06-27T06:42:44.057Z,68.15
2019-06-27T06:43:44.027Z,67.99
2019-06-27T06:44:44.018Z,68.05
2019-06-27T06:45:44.007Z,68.29
2019-06-27T06:46:43.999Z,69.09
2019-06-27T06:47:44.061Z,67.92
2019-06-27T06:48:43.988Z,67.42
2019-06-27T06:49:43.963Z,66.39
2019-06-27T06:50:43.953Z,65.95
2019-06-27T06:51:43.954Z,65.45
2019-06-27T06:52:43.966Z,65.16
2019-06-27T06:53:43.922Z,65.75
2019-06-27T06:54:43.910Z,65.39
2019-06-27T06:55:43.905Z,65.89
2019-06-27T06:56:43.892Z,66.09
2019-06-27T06:57:43.929Z,65.48
2019-06-27T06:58:43.868Z,66.05
2019-06-27T06:59:43.860Z,64.98
2019-06-27T07:00:56.997Z,66.82
2019-06-27T07:01:45.838Z,67.35
2019-06-27T07:02:43.849Z,67.25
2019-06-27T07:03:43.889Z,67.22
2019-06-27T07:04:43.805Z,66.32
2019-06-27T07:05:43.795Z,66.59
2019-06-27T07:06:43.805Z,65.45
2019-06-27T07:07:43.797Z,63.82
2019-06-27T07:08:43.763Z,64.29
2019-06-27T07:09:43.756Z,63.76
2019-06-27T07:10:43.773Z,61.99
2019-06-27T07:11:43.736Z,63.19
2019-06-27T07:12:43.811Z,61.69
2019-06-27T07:13:43.720Z,61.59
2019-06-27T07:14:43.704Z,62.52
2019-06-27T07:15:43.704Z,63.12
2019-06-27T07:16:43.751Z,63.02
2019-06-27T07:17:43.801Z,62.99
2019-06-27T07:18:43.669Z,62.86
2019-06-27T07:19:43.650Z,61.66
2019-06-27T07:20:43.640Z,61.13
2019-06-27T07:21:44.169Z,60.57
2019-06-27T07:22:43.621Z,61.76
2019-06-27T07:23:43.638Z,61.33
2019-06-27T07:24:43.744Z,61.30
2019-06-27T07:25:43.592Z,60.80
2019-06-27T07:26:43.579Z,60.31
2019-06-27T07:27:43.570Z,60.93
2019-06-27T07:28:43.582Z,61.13
2019-06-27T07:29:43.549Z,61.83
2019-06-27T07:30:43.544Z,60.53
2019-06-27T07:31:43.537Z,60.53
2019-06-27T07:32:43.521Z,60.24
2019-06-27T07:33:43.531Z,60.96
2019-06-27T07:34:43.527Z,62.05
2019-06-27T07:35:43.486Z,63.32
2019-06-27T07:36:43.477Z,61.72
2019-06-27T07:37:43.499Z,61.59
2019-06-27T07:38:46.936Z,61.49
2019-06-27T07:39:43.450Z,61.69
2019-06-27T07:40:43.435Z,62.22
2019-06-27T07:41:43.424Z,61.82
2019-06-27T07:42:43.419Z,62.22
2019-06-27T07:43:43.437Z,61.79
2019-06-27T07:44:43.452Z,61.07
2019-06-27T07:45:43.383Z,61.57
2019-06-27T07:46:43.381Z,60.80
2019-06-27T07:47:43.365Z,60.50
2019-06-27T07:48:43.362Z,59.70
2019-06-27T07:49:43.368Z,60.33
2019-06-27T07:50:43.332Z,60.63
2019-06-27T07:51:43.323Z,60.74
2019-06-27T07:52:43.315Z,60.63
2019-06-27T07:53:43.302Z,60.24
2019-06-27T07:54:43.317Z,59.74
2019-06-27T07:55:43.285Z,60.86
2019-06-27T07:56:46.214Z,60.63
2019-06-27T07:57:43.261Z,59.61
2019-06-27T07:58:43.252Z,59.48
2019-06-27T07:59:43.262Z,59.61
2019-06-27T08:00:43.243Z,60.00
2019-06-27T08:01:43.225Z,59.78
2019-06-27T08:02:43.210Z,59.18
2019-06-27T08:03:43.200Z,58.78
2019-06-27T08:04:43.217Z,58.68
2019-06-27T08:05:43.185Z,59.08
2019-06-27T08:06:43.176Z,58.98
2019-06-27T08:07:43.171Z,59.35
2019-06-27T08:08:43.148Z,58.42
2019-06-27T08:09:43.160Z,57.86
2019-06-27T08:10:43.131Z,58.68
2019-06-27T08:11:43.118Z,58.36
2019-06-27T08:12:43.107Z,58.58
2019-06-27T08:13:43.100Z,59.11
2019-06-27T08:14:43.129Z,59.78
2019-06-27T08:15:43.112Z,58.98
2019-06-27T08:16:43.066Z,60.11
2019-06-27T08:17:43.065Z,59.83
2019-06-27T08:18:43.088Z,60.48
2019-06-27T08:19:43.037Z,58.75
2019-06-27T08:20:43.048Z,58.45
2019-06-27T08:21:43.016Z,59.15
2019-06-27T08:22:43.011Z,58.03
2019-06-27T08:23:43.043Z,57.26
2019-06-27T08:24:42.986Z,58.85
2019-06-27T08:25:43.053Z,57.73
2019-06-27T08:26:42.979Z,57.00
2019-06-27T08:27:43.049Z,56.98
2019-06-27T08:28:42.947Z,56.40
2019-06-27T08:29:42.964Z,57.20
2019-06-27T08:30:42.938Z,56.81
2019-06-27T08:31:51.412Z,57.00
2019-06-27T08:32:43.909Z,56.08
2019-06-27T08:33:42.902Z,54.49
2019-06-27T08:34:43.021Z,55.65
2019-06-27T08:35:42.874Z,54.96
2019-06-27T08:36:42.865Z,55.55
2019-06-27T08:37:42.857Z,52.47
2019-06-27T08:38:42.843Z,52.67
2019-06-27T08:39:42.928Z,52.86
2019-06-27T08:40:42.838Z,52.07
2019-06-27T08:41:42.815Z,52.14
2019-06-27T08:42:42.802Z,52.64
2019-06-27T08:43:42.794Z,52.24
2019-06-27T08:44:42.806Z,52.51
2019-06-27T08:45:42.770Z,52.62
2019-06-27T08:46:42.761Z,52.89
2019-06-27T08:47:42.821Z,52.72
2019-06-27T08:48:42.741Z,54.38
2019-06-27T08:49:42.758Z,54.68
2019-06-27T08:50:42.719Z,53.86
2019-06-27T08:51:42.710Z,52.86
2019-06-27T08:52:42.701Z,53.24
2019-06-27T08:53:42.689Z,53.04
2019-06-27T08:54:42.707Z,53.24
2019-06-27T08:55:42.675Z,52.51
2019-06-27T08:56:43.104Z,51.20
2019-06-27T08:57:42.649Z,50.90
2019-06-27T08:58:42.637Z,49.68
2019-06-27T08:59:42.651Z,49.68
2019-06-27T09:00:45.750Z,48.77
2019-06-27T09:01:42.639Z,48.57
2019-06-27T09:02:42.600Z,47.77
2019-06-27T09:03:42.653Z,48.89
2019-06-27T09:04:42.581Z,48.17
2019-06-27T09:05:42.565Z,48.39
2019-06-27T09:06:42.584Z,48.57
2019-06-27T09:07:42.546Z,47.87
2019-06-27T09:08:42.533Z,48.57
2019-06-27T09:09:42.526Z,48.74
2019-06-27T09:10:42.518Z,48.54
2019-06-27T09:11:42.526Z,48.59
2019-06-27T09:12:42.495Z,48.39
2019-06-27T09:13:42.503Z,49.61
2019-06-27T09:14:42.517Z,49.21
2019-06-27T09:15:42.556Z,51.00
2019-06-27T09:16:46.447Z,48.49
2019-06-27T09:17:42.516Z,49.53
2019-06-27T09:18:42.507Z,51.05
2019-06-27T09:19:44.162Z,50.43
2019-06-27T09:20:42.681Z,50.31
2019-06-27T09:21:43.264Z,50.03
2019-06-27T09:22:42.669Z,50.93
2019-06-27T09:23:42.387Z,50.52
2019-06-27T09:24:42.416Z,51.00
2019-06-27T09:25:42.543Z,49.91
2019-06-27T09:26:42.406Z,49.41
2019-06-27T09:27:42.513Z,49.41
2019-06-27T09:28:42.359Z,50.73
2019-06-27T09:29:42.393Z,49.23
2019-06-27T09:30:42.374Z,49.93
2019-06-27T09:31:42.320Z,48.91
2019-06-27T09:32:42.286Z,48.52
2019-06-27T09:33:42.320Z,48.52
2019-06-27T09:34:42.279Z,49.71
2019-06-27T09:35:42.258Z,48.39
2019-06-27T09:36:42.350Z,46.98
2019-06-27T09:37:42.239Z,46.56
2019-06-27T09:38:42.243Z,46.26
2019-06-27T09:39:42.214Z,46.56
2019-06-27T09:40:42.204Z,45.27
2019-06-27T09:41:42.264Z,44.67
2019-06-27T09:42:42.183Z,45.17
2019-06-27T09:43:42.175Z,45.27
2019-06-27T09:44:42.411Z,45.47
2019-06-27T09:45:42.154Z,45.45
2019-06-27T09:46:42.166Z,45.34
2019-06-27T09:47:42.134Z,45.15
2019-06-27T09:48:42.124Z,44.95
2019-06-27T09:49:42.185Z,44.06
2019-06-27T09:50:42.102Z,43.46
2019-06-27T09:51:42.146Z,45.64
2019-06-27T09:52:42.082Z,42.13
2019-06-27T09:53:42.127Z,42.13
2019-06-27T09:54:42.063Z,41.83
2019-06-27T09:55:42.068Z,40.62
2019-06-27T09:56:42.041Z,37.87
2019-06-27T09:57:42.161Z,39.97
2019-06-27T09:58:42.019Z,41.16
2019-06-27T09:59:42.009Z,42.21
2019-06-27T10:00:42.000Z,43.40
2019-06-27T10:01:41.990Z,42.58
2019-06-27T10:02:42.945Z,42.31
2019-06-27T10:03:41.969Z,42.31
2019-06-27T10:04:41.978Z,41.39
2019-06-27T10:05:41.951Z,39.69
2019-06-27T10:06:42.040Z,39.47
2019-06-27T10:07:41.984Z,41.38
2019-06-27T10:08:41.918Z,41.14
2019-06-27T10:09:41.907Z,40.01
2019-06-27T10:10:41.935Z,39.08
2019-06-27T10:11:41.891Z,37.98
2019-06-27T10:12:43.304Z,39.75
2019-06-27T10:13:41.869Z,40.86
2019-06-27T10:14:41.861Z,41.69
2019-06-27T10:15:41.862Z,41.14
2019-06-27T10:16:41.836Z,42.66
2019-06-27T10:17:41.851Z,43.04
2019-06-27T10:18:41.816Z,43.40
2019-06-27T10:19:41.805Z,42.01
2019-06-27T10:20:41.794Z,43.04
2019-06-27T10:21:41.783Z,42.25
2019-06-27T10:22:41.832Z,39.57
2019-06-27T10:23:41.788Z,39.95
2019-06-27T10:24:41.754Z,41.31
2019-06-27T10:25:41.745Z,40.60
2019-06-27T10:26:41.735Z,40.19
2019-06-27T10:27:41.802Z,39.22
2019-06-27T10:28:41.712Z,39.04
2019-06-27T10:29:41.702Z,40.92
2019-06-27T10:30:41.705Z,39.93
2019-06-27T10:31:41.700Z,38.11
2019-06-27T10:32:57.777Z,35.42
2019-06-27T10:33:42.661Z,34.51
2019-06-27T10:34:41.651Z,34.08
2019-06-27T10:35:41.689Z,33.47
2019-06-27T10:36:41.630Z,32.87
2019-06-27T10:37:41.620Z,32.28
2019-06-27T10:38:41.609Z,35.14
2019-06-27T10:39:41.614Z,36.22
2019-06-27T10:40:41.615Z,36.37
2019-06-27T10:41:41.580Z,37.79
2019-06-27T10:42:41.810Z,37.30
2019-06-27T10:43:41.561Z,35.60
2019-06-27T10:44:41.562Z,36.41
2019-06-27T10:45:41.567Z,34.83
2019-06-27T10:46:41.530Z,34.12
2019-06-27T10:47:41.557Z,32.81
2019-06-27T10:48:41.514Z,32.21
2019-06-27T10:49:41.500Z,29.23
2019-06-27T10:50:41.494Z,30.20
2019-06-27T10:51:41.477Z,29.32
2019-06-27T10:52:41.480Z,30.29
2019-06-27T10:53:41.482Z,29.68
2019-06-27T10:54:41.449Z,28.96
2019-06-27T10:55:41.446Z,31.32
2019-06-27T10:56:41.427Z,35.10
2019-06-27T10:57:41.416Z,36.60
2019-06-27T10:58:41.429Z,36.12
2019-06-27T10:59:41.414Z,36.32
2019-06-27T11:00:41.427Z,35.55
2019-06-27T11:01:41.390Z,36.34
2019-06-27T11:02:41.377Z,36.44
2019-06-27T11:03:41.379Z,37.15
2019-06-27T11:04:41.376Z,37.13
2019-06-27T11:05:41.360Z,36.34
2019-06-27T11:06:41.323Z,37.54
2019-06-27T11:07:41.393Z,36.55
2019-06-27T11:08:41.330Z,36.36
2019-06-27T11:09:41.295Z,35.86
2019-06-27T11:10:41.307Z,36.77
2019-06-27T11:11:41.272Z,37.34
2019-06-27T11:12:44.864Z,36.36
2019-06-27T11:13:57.652Z,37.16
2019-06-27T11:14:58.046Z,36.87
2019-06-27T11:15:42.240Z,34.97
2019-06-27T11:16:41.224Z,35.35
2019-06-27T11:17:41.221Z,34.64
2019-06-27T11:18:41.225Z,34.23
2019-06-27T11:19:52.063Z,35.45
2019-06-27T11:20:42.180Z,35.25
2019-06-27T11:21:41.173Z,35.25
2019-06-27T11:22:41.171Z,34.67
2019-06-27T11:23:41.195Z,34.66
2019-06-27T11:24:41.146Z,34.74
2019-06-27T11:25:41.134Z,35.00
2019-06-27T11:26:41.119Z,34.12
2019-06-27T11:27:41.115Z,33.48
2019-06-27T11:28:41.124Z,33.28
2019-06-27T11:29:41.086Z,31.59
2019-06-27T11:30:41.078Z,31.69
2019-06-27T11:31:41.071Z,32.00
2019-06-27T11:32:41.063Z,32.59
2019-06-27T11:33:41.071Z,32.51
2019-06-27T11:34:41.036Z,32.01
2019-06-27T11:35:41.027Z,30.72
2019-06-27T11:36:41.043Z,31.31
2019-06-27T11:37:41.005Z,32.23
2019-06-27T11:38:40.994Z,32.54
2019-06-27T11:39:40.986Z,32.16
2019-06-27T11:40:40.977Z,33.34
2019-06-27T11:41:41.001Z,31.83
2019-06-27T11:42:40.955Z,32.23
2019-06-27T11:43:40.944Z,31.93
2019-06-27T11:44:40.935Z,30.73
2019-06-27T11:45:40.928Z,29.96
2019-06-27T11:46:40.939Z,29.46
2019-06-27T11:47:40.903Z,29.53
2019-06-27T11:48:40.892Z,30.02
2019-06-27T11:49:40.884Z,29.82
2019-06-27T11:50:40.882Z,30.03
2019-06-27T11:51:40.889Z,30.03
2019-06-27T11:52:40.854Z,30.75
2019-06-27T11:53:40.856Z,29.28
2019-06-27T11:54:40.835Z,28.88
2019-06-27T11:55:40.820Z,30.03
2019-06-27T11:56:40.845Z,29.43
2019-06-27T11:57:40.801Z,29.30
2019-06-27T11:58:40.799Z,28.24
2019-06-27T11:59:40.779Z,28.92
2019-06-27T12:00:40.770Z,30.11
2019-06-27T12:01:40.786Z,29.34
2019-06-27T12:02:40.758Z,30.31
2019-06-27T12:03:49.217Z,29.51
2019-06-27T12:04:41.727Z,29.30
2019-06-27T12:05:40.717Z,29.49
2019-06-27T12:06:40.734Z,28.14
2019-06-27T12:07:40.698Z,28.93
2019-06-27T12:08:40.686Z,28.96
2019-06-27T12:09:40.687Z,30.65
2019-06-27T12:10:40.667Z,30.34
2019-06-27T12:11:40.680Z,29.33
2019-06-27T12:12:40.648Z,28.91
2019-06-27T12:13:40.642Z,27.89
2019-06-27T12:14:40.711Z,29.19
2019-06-27T12:15:40.613Z,29.90
2019-06-27T12:16:40.627Z,30.62
2019-06-27T12:17:40.592Z,32.21
2019-06-27T12:18:40.582Z,30.82
2019-06-27T12:19:40.577Z,31.39
2019-06-27T12:20:40.562Z,30.77
2019-06-27T12:21:40.583Z,30.35
2019-06-27T12:22:40.547Z,29.34
2019-06-27T12:23:40.537Z,28.37
2019-06-27T12:24:40.520Z,28.75
2019-06-27T12:25:40.511Z,27.18
2019-06-27T12:26:40.524Z,26.82
2019-06-27T12:27:40.492Z,27.02
2019-06-27T12:28:40.479Z,27.33
2019-06-27T12:29:40.469Z,27.81
2019-06-27T12:30:40.460Z,27.53
2019-06-27T12:31:40.472Z,27.95
2019-06-27T12:32:50.933Z,28.65
2019-06-27T12:33:41.427Z,29.23
2019-06-27T12:34:40.478Z,27.57
2019-06-27T12:35:40.413Z,28.64
2019-06-27T12:36:40.424Z,27.92
2019-06-27T12:37:40.385Z,27.53
2019-06-27T12:38:40.377Z,28.11
2019-06-27T12:39:40.366Z,27.12
2019-06-27T12:40:40.357Z,27.01
2019-06-27T12:41:40.384Z,26.72
2019-06-27T12:42:40.341Z,27.02
2019-06-27T12:43:40.326Z,27.02
2019-06-27T12:44:40.317Z,27.22
2019-06-27T12:45:40.304Z,25.93
2019-06-27T12:46:40.321Z,25.54
2019-06-27T12:47:40.285Z,27.19
2019-06-27T12:48:40.273Z,27.20
2019-06-27T12:49:56.987Z,26.91
2019-06-27T12:50:41.255Z,25.32
2019-06-27T12:51:40.270Z,25.13
2019-06-27T12:52:40.232Z,25.52